createdAt,value
2016-11-25T00:00:00.116Z,0
2016-11-25T00:01:00.077Z,0
2016-11-25T00:02:00.060Z,0
2016-11-25T00:03:00.039Z,0
2016-11-25T00:04:00.334Z,0
2016-11-25T00:05:00.003Z,0
2016-11-25T00:05:59.978Z,0
2016-11-25T00:06:59.958Z,0
2016-11-25T00:07:59.939Z,0
2016-11-25T00:08:59.932Z,0
2016-11-25T00:09:59.900Z,0
2016-11-25T00:11:00.187Z,0
2016-11-25T00:11:59.864Z,0
2016-11-25T00:12:59.840Z,0
2016-11-25T00:14:00.135Z,0
2016-11-25T00:14:59.804Z,0
2016-11-25T00:15:59.774Z,0
2016-11-25T00:16:59.759Z,0
2016-11-25T00:17:59.737Z,0
2016-11-25T00:18:59.722Z,0
2016-11-25T00:19:59.702Z,0
2016-11-25T00:20:59.677Z,0
2016-11-25T00:21:59.656Z,0
2016-11-25T00:22:59.647Z,0
2016-11-25T00:23:59.968Z,0
2016-11-25T00:24:59.604Z,0
2016-11-25T00:25:59.591Z,0
2016-11-25T00:26:59.556Z,0
2016-11-25T00:27:59.534Z,0
2016-11-25T00:28:59.519Z,0
2016-11-25T00:29:59.493Z,0
2016-11-25T00:30:59.790Z,0
2016-11-25T00:31:59.452Z,0
2016-11-25T00:32:59.436Z,0
2016-11-25T00:33:59.422Z,0
2016-11-25T00:34:59.742Z,0
2016-11-25T00:35:59.378Z,0
2016-11-25T00:36:59.357Z,0
2016-11-25T00:37:59.333Z,0
2016-11-25T00:38:59.317Z,0
2016-11-25T00:39:59.290Z,0
2016-11-25T00:40:59.276Z,0
2016-11-25T00:41:59.288Z,0
2016-11-25T00:42:59.231Z,0
2016-11-25T00:43:59.215Z,0
2016-11-25T00:44:59.195Z,0
2016-11-25T00:45:59.173Z,0
2016-11-25T00:46:59.155Z,0
2016-11-25T00:47:59.128Z,0
2016-11-25T00:48:59.435Z,0
2016-11-25T00:49:59.092Z,0
2016-11-25T00:50:59.091Z,0
2016-11-25T00:51:59.062Z,0
2016-11-25T00:52:59.030Z,0
2016-11-25T00:53:59.018Z,0
2016-11-25T00:54:58.993Z,0
2016-11-25T00:55:58.973Z,0
2016-11-25T00:56:59.263Z,0
2016-11-25T00:57:59.238Z,0
2016-11-25T00:58:58.906Z,0
2016-11-25T00:59:58.890Z,0
2016-11-25T01:00:58.867Z,0
2016-11-25T01:01:58.859Z,0
2016-11-25T01:02:58.829Z,0
2016-11-25T01:03:58.817Z,0
2016-11-25T01:04:58.786Z,0
2016-11-25T01:05:59.079Z,0
2016-11-25T01:06:58.743Z,0
2016-11-25T01:07:58.727Z,0
2016-11-25T01:08:58.709Z,0
2016-11-25T01:09:59.007Z,0
2016-11-25T01:10:58.665Z,0
2016-11-25T01:11:58.643Z,0
2016-11-25T01:12:58.621Z,0
2016-11-25T01:13:58.601Z,0
2016-11-25T01:14:58.902Z,0
2016-11-25T01:15:58.873Z,0
2016-11-25T01:16:58.546Z,0
2016-11-25T01:17:58.525Z,0
2016-11-25T01:18:58.526Z,0
2016-11-25T01:19:58.481Z,0
2016-11-25T01:20:58.496Z,0
2016-11-25T01:21:58.755Z,0
2016-11-25T01:22:58.738Z,0
2016-11-25T01:23:58.739Z,0
2016-11-25T01:24:58.379Z,0
2016-11-25T01:25:58.367Z,0
2016-11-25T01:26:58.338Z,0
2016-11-25T01:27:58.319Z,0
2016-11-25T01:28:58.297Z,0
2016-11-25T01:29:58.271Z,0
2016-11-25T01:30:58.250Z,0
2016-11-25T01:31:58.235Z,0
2016-11-25T01:32:58.216Z,0
2016-11-25T01:33:58.196Z,0
2016-11-25T01:34:58.175Z,0
2016-11-25T01:35:58.157Z,0
2016-11-25T01:36:58.137Z,0
2016-11-25T01:37:58.419Z,0
2016-11-25T01:38:58.403Z,0
2016-11-25T01:39:58.073Z,0
2016-11-25T01:40:58.358Z,0
2016-11-25T01:41:58.027Z,0
2016-11-25T01:42:58.010Z,0
2016-11-25T01:43:57.987Z,0
2016-11-25T01:44:57.967Z,0
2016-11-25T01:45:57.997Z,0
2016-11-25T01:46:57.958Z,0
2016-11-25T01:47:58.099Z,0
2016-11-25T01:48:58.196Z,0
2016-11-25T01:49:57.865Z,0
2016-11-25T01:50:57.854Z,0
2016-11-25T01:51:57.856Z,0
2016-11-25T01:52:58.112Z,0
2016-11-25T01:53:57.784Z,0
2016-11-25T01:54:57.756Z,0
2016-11-25T01:55:57.742Z,0
2016-11-25T01:56:58.070Z,0
2016-11-25T01:57:57.704Z,0
2016-11-25T01:58:57.740Z,0
2016-11-25T01:59:57.670Z,0
2016-11-25T02:00:57.969Z,0
2016-11-25T02:01:57.654Z,0
2016-11-25T02:02:57.601Z,0
2016-11-25T02:03:57.585Z,0
2016-11-25T02:04:58.192Z,0
2016-11-25T02:05:57.537Z,0
2016-11-25T02:06:57.835Z,0
2016-11-25T02:07:57.501Z,0
2016-11-25T02:08:57.477Z,0
2016-11-25T02:09:57.460Z,0
2016-11-25T02:10:57.748Z,0
2016-11-25T02:11:57.415Z,0
2016-11-25T02:12:57.399Z,0
2016-11-25T02:13:57.375Z,0
2016-11-25T02:14:57.354Z,0
2016-11-25T02:15:57.332Z,0
2016-11-25T02:16:57.312Z,0
2016-11-25T02:17:57.292Z,0
2016-11-25T02:18:57.275Z,0
2016-11-25T02:19:57.286Z,0
2016-11-25T02:20:57.539Z,0
2016-11-25T02:21:57.533Z,0
2016-11-25T02:22:57.189Z,0
2016-11-25T02:23:57.474Z,0
2016-11-25T02:24:57.453Z,0
2016-11-25T02:25:57.123Z,0
2016-11-25T02:26:57.097Z,0
2016-11-25T02:27:57.088Z,0
2016-11-25T02:28:57.059Z,0
2016-11-25T02:29:57.355Z,0
2016-11-25T02:30:57.326Z,0
2016-11-25T02:31:57.629Z,0
2016-11-25T02:32:56.984Z,0
2016-11-25T02:33:56.953Z,0
2016-11-25T02:34:56.949Z,0
2016-11-25T02:35:56.920Z,0
2016-11-25T02:36:56.941Z,0
2016-11-25T02:37:56.867Z,0
2016-11-25T02:38:56.845Z,0
2016-11-25T02:39:57.144Z,0
2016-11-25T02:40:56.817Z,0
2016-11-25T02:41:56.789Z,0
2016-11-25T02:42:56.811Z,0
2016-11-25T02:43:57.061Z,0
2016-11-25T02:44:56.724Z,0
2016-11-25T02:45:57.047Z,0
2016-11-25T02:46:56.999Z,0
2016-11-25T02:47:56.666Z,0
2016-11-25T02:48:56.639Z,0
2016-11-25T02:49:56.664Z,0
2016-11-25T02:50:56.611Z,0
2016-11-25T02:51:56.586Z,0
2016-11-25T02:52:56.595Z,0
2016-11-25T02:53:56.536Z,0
2016-11-25T02:54:56.534Z,0
2016-11-25T02:55:56.813Z,0
2016-11-25T02:56:56.491Z,0
2016-11-25T02:57:56.450Z,0
2016-11-25T02:58:56.430Z,0
2016-11-25T02:59:56.412Z,0
2016-11-25T03:00:56.398Z,0
2016-11-25T03:01:56.370Z,0
2016-11-25T03:02:56.349Z,0
2016-11-25T03:03:56.397Z,0
2016-11-25T03:04:56.628Z,0
2016-11-25T03:05:56.609Z,0
2016-11-25T03:06:56.584Z,0
2016-11-25T03:07:56.560Z,0
2016-11-25T03:08:56.229Z,0
2016-11-25T03:09:56.204Z,0
2016-11-25T03:10:56.179Z,0
2016-11-25T03:11:56.158Z,0
2016-11-25T03:12:56.453Z,0
2016-11-25T03:13:56.121Z,0
2016-11-25T03:14:56.106Z,0
2016-11-25T03:15:56.077Z,0
2016-11-25T03:16:56.061Z,0
2016-11-25T03:17:56.346Z,0
2016-11-25T03:18:56.008Z,0
2016-11-25T03:19:55.989Z,0
2016-11-25T03:20:55.971Z,0
2016-11-25T03:21:55.947Z,0
2016-11-25T03:22:56.248Z,0
2016-11-25T03:23:56.221Z,0
2016-11-25T03:24:55.894Z,0
2016-11-25T03:25:56.182Z,0
2016-11-25T03:26:56.155Z,0
2016-11-25T03:27:56.140Z,0
2016-11-25T03:28:55.801Z,0
2016-11-25T03:29:55.791Z,0
2016-11-25T03:30:55.764Z,0
2016-11-25T03:31:55.737Z,0
2016-11-25T03:32:55.716Z,0
2016-11-25T03:33:55.704Z,0
2016-11-25T03:34:55.706Z,0
2016-11-25T03:35:55.652Z,0
2016-11-25T03:36:55.631Z,0
2016-11-25T03:37:55.615Z,0
2016-11-25T03:38:55.906Z,0
2016-11-25T03:39:55.910Z,0
2016-11-25T03:40:55.547Z,0
2016-11-25T03:41:55.531Z,0
2016-11-25T03:42:55.502Z,0
2016-11-25T03:43:55.490Z,0
2016-11-25T03:44:55.462Z,0
2016-11-25T03:45:55.441Z,0
2016-11-25T03:46:55.738Z,0
2016-11-25T03:47:55.597Z,0
2016-11-25T03:48:55.693Z,0
2016-11-25T03:49:55.360Z,0
2016-11-25T03:50:55.349Z,0
2016-11-25T03:51:55.313Z,0
2016-11-25T03:52:55.296Z,0
2016-11-25T03:53:55.270Z,0
2016-11-25T03:54:55.253Z,0
2016-11-25T03:55:55.267Z,0
2016-11-25T03:56:55.208Z,0
2016-11-25T03:57:55.505Z,0
2016-11-25T03:58:55.484Z,0
2016-11-25T03:59:55.145Z,0
2016-11-25T04:00:55.121Z,0
2016-11-25T04:01:55.115Z,0
2016-11-25T04:02:55.093Z,0
2016-11-25T04:03:55.057Z,0
2016-11-25T04:04:55.035Z,0
2016-11-25T04:05:55.326Z,0
2016-11-25T04:06:54.992Z,0
2016-11-25T04:07:54.983Z,0
2016-11-25T04:08:55.276Z,0
2016-11-25T04:09:54.939Z,0
2016-11-25T04:10:54.928Z,0
2016-11-25T04:11:54.894Z,0
2016-11-25T04:12:54.862Z,0
2016-11-25T04:13:54.852Z,0
2016-11-25T04:14:54.830Z,0
2016-11-25T04:15:54.824Z,0
2016-11-25T04:16:54.781Z,0
2016-11-25T04:17:55.071Z,0
2016-11-25T04:18:54.746Z,0
2016-11-25T04:19:54.714Z,0
2016-11-25T04:20:54.703Z,0
2016-11-25T04:21:54.986Z,0
2016-11-25T04:22:54.986Z,0
2016-11-25T04:23:54.629Z,0
2016-11-25T04:24:54.924Z,0
2016-11-25T04:25:54.596Z,0
2016-11-25T04:26:54.563Z,0
2016-11-25T04:27:54.540Z,0
2016-11-25T04:28:54.526Z,0
2016-11-25T04:29:54.503Z,0
2016-11-25T04:30:54.478Z,0
2016-11-25T04:31:54.781Z,0
2016-11-25T04:32:54.455Z,0
2016-11-25T04:33:54.451Z,0
2016-11-25T04:34:54.394Z,0
2016-11-25T04:35:54.377Z,0
2016-11-25T04:36:54.351Z,0
2016-11-25T04:37:54.331Z,0
2016-11-25T04:38:54.310Z,0
2016-11-25T04:39:54.292Z,0
2016-11-25T04:40:54.262Z,0
2016-11-25T04:41:54.237Z,0
2016-11-25T04:42:54.855Z,0
2016-11-25T04:43:54.205Z,0
2016-11-25T04:44:54.206Z,0
2016-11-25T04:45:54.161Z,0
2016-11-25T04:46:54.141Z,0
2016-11-25T04:47:54.112Z,0
2016-11-25T04:48:54.094Z,0
2016-11-25T04:49:54.119Z,0
2016-11-25T04:50:54.362Z,0
2016-11-25T04:51:54.340Z,0
2016-11-25T04:52:54.011Z,0
2016-11-25T04:53:53.985Z,0
2016-11-25T04:54:54.279Z,0
2016-11-25T04:55:53.944Z,0
2016-11-25T04:56:53.921Z,0
2016-11-25T04:57:53.898Z,0
2016-11-25T04:58:53.879Z,0
2016-11-25T04:59:53.858Z,0
2016-11-25T05:00:54.154Z,0
2016-11-25T05:01:54.125Z,0
2016-11-25T05:02:53.790Z,0
2016-11-25T05:03:53.769Z,0
2016-11-25T05:04:53.747Z,0
2016-11-25T05:05:54.042Z,0
2016-11-25T05:06:53.700Z,0
2016-11-25T05:07:53.686Z,0
2016-11-25T05:08:53.652Z,0
2016-11-25T05:09:53.638Z,0
2016-11-25T05:10:53.615Z,0
2016-11-25T05:11:53.593Z,0
2016-11-25T05:12:53.585Z,0
2016-11-25T05:13:53.921Z,0
2016-11-25T05:14:53.531Z,0
2016-11-25T05:15:53.509Z,0
2016-11-25T05:16:53.479Z,0
2016-11-25T05:17:53.780Z,0
2016-11-25T05:18:53.455Z,0
2016-11-25T05:19:53.433Z,0
2016-11-25T05:20:53.428Z,0
2016-11-25T05:21:53.381Z,0
2016-11-25T05:22:53.352Z,0
2016-11-25T05:23:53.372Z,0
2016-11-25T05:24:53.313Z,0
2016-11-25T05:25:53.289Z,0
2016-11-25T05:26:53.586Z,0
2016-11-25T05:27:53.246Z,0
2016-11-25T05:28:53.226Z,0
2016-11-25T05:29:53.516Z,0
2016-11-25T05:30:53.183Z,0
2016-11-25T05:31:53.160Z,0
2016-11-25T05:32:53.454Z,0
2016-11-25T05:33:53.118Z,0
2016-11-25T05:34:53.088Z,0
2016-11-25T05:35:53.082Z,0
2016-11-25T05:36:53.366Z,0
2016-11-25T05:37:53.656Z,0
2016-11-25T05:38:53.007Z,0
2016-11-25T05:39:53.605Z,0
2016-11-25T05:40:52.971Z,0
2016-11-25T05:41:52.947Z,0
2016-11-25T05:42:52.933Z,0
2016-11-25T05:43:53.230Z,0
2016-11-25T05:44:52.881Z,0
2016-11-25T05:45:52.853Z,0
2016-11-25T05:46:53.151Z,0
2016-11-25T05:47:53.248Z,0
2016-11-25T05:48:52.797Z,0
2016-11-25T05:49:53.078Z,0
2016-11-25T05:50:52.739Z,0
2016-11-25T05:51:52.722Z,0
2016-11-25T05:52:52.699Z,0
2016-11-25T05:53:52.681Z,0
2016-11-25T05:54:52.658Z,0
2016-11-25T05:55:53.269Z,0
2016-11-25T05:56:52.930Z,0
2016-11-25T05:57:52.590Z,0
2016-11-25T05:58:52.576Z,0
2016-11-25T05:59:52.548Z,0
2016-11-25T06:00:52.524Z,0
2016-11-25T06:01:52.512Z,0
2016-11-25T06:02:52.482Z,0
2016-11-25T06:03:52.455Z,0
2016-11-25T06:04:52.498Z,0
2016-11-25T06:05:52.744Z,0
2016-11-25T06:06:52.397Z,0
2016-11-25T06:07:52.379Z,0
2016-11-25T06:08:52.348Z,0
2016-11-25T06:09:52.326Z,0
2016-11-25T06:10:52.629Z,0
2016-11-25T06:11:52.605Z,0
2016-11-25T06:12:52.267Z,0
2016-11-25T06:13:52.245Z,0
2016-11-25T06:14:52.565Z,0
2016-11-25T06:15:52.195Z,0
2016-11-25T06:16:52.170Z,0
2016-11-25T06:17:52.155Z,0
2016-11-25T06:18:52.131Z,0
2016-11-25T06:19:52.105Z,0
2016-11-25T06:20:52.088Z,0
2016-11-25T06:21:52.065Z,0
2016-11-25T06:22:52.038Z,0
2016-11-25T06:23:52.020Z,0
2016-11-25T06:24:52.317Z,0
2016-11-25T06:25:52.294Z,0
2016-11-25T06:26:52.272Z,0
2016-11-25T06:27:51.930Z,0
2016-11-25T06:28:52.256Z,0
2016-11-25T06:29:52.202Z,0
2016-11-25T06:30:51.869Z,0
2016-11-25T06:31:51.839Z,0
2016-11-25T06:32:51.819Z,4
2016-11-25T06:33:51.836Z,4
2016-11-25T06:34:51.773Z,0
2016-11-25T06:35:52.064Z,4
2016-11-25T06:36:51.734Z,4
2016-11-25T06:37:51.723Z,4
2016-11-25T06:38:51.699Z,4
2016-11-25T06:39:51.986Z,4
2016-11-25T06:40:51.962Z,8
2016-11-25T06:41:51.618Z,8
2016-11-25T06:42:51.597Z,12
2016-11-25T06:43:51.578Z,12
2016-11-25T06:44:51.595Z,12
2016-11-25T06:45:51.533Z,20
2016-11-25T06:46:51.516Z,20
2016-11-25T06:47:52.115Z,24
2016-11-25T06:48:51.471Z,32
2016-11-25T06:49:51.469Z,36
2016-11-25T06:50:51.423Z,40
2016-11-25T06:51:51.400Z,48
2016-11-25T06:52:51.380Z,52
2016-11-25T06:53:51.359Z,64
2016-11-25T06:54:51.338Z,72
2016-11-25T06:55:51.944Z,80
2016-11-25T06:56:51.294Z,92
2016-11-25T06:57:51.351Z,108
2016-11-25T06:58:51.281Z,120
2016-11-25T06:59:51.227Z,136
2016-11-25T07:00:51.203Z,156
2016-11-25T07:01:51.833Z,172
2016-11-25T07:02:51.156Z,188
2016-11-25T07:03:51.143Z,212
2016-11-25T07:04:51.118Z,232
2016-11-25T07:05:51.096Z,252
2016-11-25T07:06:51.075Z,276
2016-11-25T07:07:51.047Z,304
2016-11-25T07:08:51.034Z,324
2016-11-25T07:09:51.017Z,352
2016-11-25T07:10:50.987Z,380
2016-11-25T07:11:50.958Z,404
2016-11-25T07:12:50.943Z,436
2016-11-25T07:13:50.913Z,464
2016-11-25T07:14:50.889Z,488
2016-11-25T07:15:50.872Z,520
2016-11-25T07:16:50.857Z,552
2016-11-25T07:17:50.849Z,580
2016-11-25T07:18:50.816Z,608
2016-11-25T07:19:50.816Z,640
2016-11-25T07:20:50.759Z,668
2016-11-25T07:21:50.742Z,692
2016-11-25T07:22:50.717Z,724
2016-11-25T07:23:50.696Z,748
2016-11-25T07:24:50.997Z,772
2016-11-25T07:25:50.959Z,796
2016-11-25T07:26:50.655Z,820
2016-11-25T07:27:50.606Z,844
2016-11-25T07:28:50.912Z,864
2016-11-25T07:29:50.567Z,884
2016-11-25T07:30:50.861Z,908
2016-11-25T07:31:50.521Z,932
2016-11-25T07:32:50.865Z,956
2016-11-25T07:33:50.480Z,980
2016-11-25T07:34:50.453Z,1004
2016-11-25T07:35:50.438Z,1028
2016-11-25T07:36:50.412Z,1052
2016-11-25T07:37:50.395Z,1076
2016-11-25T07:38:50.681Z,1100
2016-11-25T07:39:50.351Z,1124
2016-11-25T07:40:50.323Z,1144
2016-11-25T07:41:50.308Z,1168
2016-11-25T07:42:50.598Z,1192
2016-11-25T07:43:50.276Z,1208
2016-11-25T07:44:50.238Z,1236
2016-11-25T07:45:50.227Z,1252
2016-11-25T07:46:50.188Z,1272
2016-11-25T07:47:50.175Z,1296
2016-11-25T07:48:50.355Z,1320
2016-11-25T07:49:50.129Z,1356
2016-11-25T07:50:50.442Z,1376
2016-11-25T07:51:50.082Z,1404
2016-11-25T07:52:50.067Z,1424
2016-11-25T07:53:50.349Z,1456
2016-11-25T07:54:50.022Z,1484
2016-11-25T07:55:50.317Z,1512
2016-11-25T07:56:49.981Z,1540
2016-11-25T07:57:49.953Z,1580
2016-11-25T07:58:49.933Z,1612
2016-11-25T07:59:49.914Z,1632
2016-11-25T08:00:49.883Z,1672
2016-11-25T08:01:49.869Z,1708
2016-11-25T08:02:49.845Z,1732
2016-11-25T08:03:49.822Z,1764
2016-11-25T08:04:50.121Z,1800
2016-11-25T08:05:49.779Z,1816
2016-11-25T08:06:49.757Z,1852
2016-11-25T08:07:49.737Z,1880
2016-11-25T08:08:49.731Z,1908
2016-11-25T08:09:49.689Z,1932
2016-11-25T08:10:49.674Z,1972
2016-11-25T08:11:49.649Z,2008
2016-11-25T08:12:49.636Z,2036
2016-11-25T08:13:49.922Z,2060
2016-11-25T08:14:49.585Z,2088
2016-11-25T08:15:49.570Z,2128
2016-11-25T08:16:49.544Z,2176
2016-11-25T08:17:49.523Z,2208
2016-11-25T08:18:49.510Z,2236
2016-11-25T08:19:49.476Z,2280
2016-11-25T08:20:49.474Z,2328
2016-11-25T08:21:49.750Z,2340
2016-11-25T08:22:49.410Z,2376
2016-11-25T08:23:49.391Z,2424
2016-11-25T08:24:49.374Z,2460
2016-11-25T08:25:49.353Z,2480
2016-11-25T08:26:49.645Z,2508
2016-11-25T08:27:49.314Z,2548
2016-11-25T08:28:49.284Z,2584
2016-11-25T08:29:49.265Z,2608
2016-11-25T08:30:49.560Z,2640
2016-11-25T08:31:49.221Z,2672
2016-11-25T08:32:49.208Z,2668
2016-11-25T08:33:49.492Z,2700
2016-11-25T08:34:49.509Z,2700
2016-11-25T08:35:49.449Z,2716
2016-11-25T08:36:49.121Z,2744
2016-11-25T08:37:49.101Z,2756
2016-11-25T08:38:49.076Z,2768
2016-11-25T08:39:49.053Z,2768
2016-11-25T08:40:49.039Z,2768
2016-11-25T08:41:49.025Z,2776
2016-11-25T08:42:49.009Z,2776
2016-11-25T08:43:49.290Z,2772
2016-11-25T08:44:49.265Z,2808
2016-11-25T08:45:48.924Z,2828
2016-11-25T08:46:48.908Z,2844
2016-11-25T08:47:49.197Z,2880
2016-11-25T08:48:48.868Z,2904
2016-11-25T08:49:49.158Z,2924
2016-11-25T08:50:48.826Z,2984
2016-11-25T08:51:49.198Z,2980
2016-11-25T08:52:48.783Z,3008
2016-11-25T08:53:48.767Z,3044
2016-11-25T08:54:48.740Z,3056
2016-11-25T08:56:00.134Z,3072
2016-11-25T08:56:48.753Z,3088
2016-11-25T08:57:48.996Z,3116
2016-11-25T08:58:48.972Z,3132
2016-11-25T08:59:48.959Z,3148
2016-11-25T09:00:48.616Z,3152
2016-11-25T09:01:48.612Z,3156
2016-11-25T09:02:48.579Z,3172
2016-11-25T09:03:48.554Z,3188
2016-11-25T09:04:48.541Z,3208
2016-11-25T09:05:48.515Z,3232
2016-11-25T09:06:48.493Z,3252
2016-11-25T09:07:48.477Z,3300
2016-11-25T09:08:48.768Z,3360
2016-11-25T09:09:48.434Z,3400
2016-11-25T09:10:48.409Z,3416
2016-11-25T09:11:48.393Z,3440
2016-11-25T09:12:48.368Z,3480
2016-11-25T09:13:48.360Z,3488
2016-11-25T09:14:48.345Z,3676
2016-11-25T09:15:48.314Z,3876
2016-11-25T09:16:48.289Z,3744
2016-11-25T09:17:48.273Z,3824
2016-11-25T09:18:48.257Z,3920
2016-11-25T09:19:48.227Z,3980
2016-11-25T09:20:48.225Z,4000
2016-11-25T09:21:48.198Z,4680
2016-11-25T09:22:48.205Z,5308
2016-11-25T09:23:48.462Z,4524
2016-11-25T09:24:48.187Z,4588
2016-11-25T09:25:48.116Z,5836
2016-11-25T09:26:48.088Z,6776
2016-11-25T09:27:48.441Z,7844
2016-11-25T09:28:48.069Z,6688
2016-11-25T09:29:48.036Z,4544
2016-11-25T09:30:48.369Z,4260
2016-11-25T09:31:48.039Z,4180
2016-11-25T09:32:47.977Z,4092
2016-11-25T09:33:48.001Z,3980
2016-11-25T09:34:47.939Z,3792
2016-11-25T09:35:47.937Z,3932
2016-11-25T09:36:47.940Z,4176
2016-11-25T09:37:47.890Z,5112
2016-11-25T09:38:47.869Z,6368
2016-11-25T09:39:47.844Z,6940
2016-11-25T09:40:47.828Z,6328
2016-11-25T09:41:47.811Z,5372
2016-11-25T09:42:47.797Z,4952
2016-11-25T09:43:47.778Z,5048
2016-11-25T09:44:47.763Z,5120
2016-11-25T09:45:47.739Z,5396
2016-11-25T09:46:47.756Z,6532
2016-11-25T09:47:47.708Z,7004
2016-11-25T09:48:48.215Z,7452
2016-11-25T09:49:47.684Z,8424
2016-11-25T09:50:47.986Z,8484
2016-11-25T09:51:47.960Z,7176
2016-11-25T09:52:47.620Z,7568
2016-11-25T09:53:47.608Z,7844
2016-11-25T09:54:47.589Z,7844
2016-11-25T09:55:47.574Z,7996
2016-11-25T09:56:47.872Z,9680
2016-11-25T09:57:47.538Z,11708
2016-11-25T09:58:47.522Z,11832
2016-11-25T09:59:47.515Z,11756
2016-11-25T10:00:47.488Z,10764
2016-11-25T10:01:47.481Z,9396
2016-11-25T10:02:47.459Z,9084
2016-11-25T10:03:47.766Z,9020
2016-11-25T10:04:47.436Z,8520
2016-11-25T10:05:47.424Z,9004
2016-11-25T10:06:47.401Z,8540
2016-11-25T10:07:47.392Z,7196
2016-11-25T10:08:47.377Z,8268
2016-11-25T10:09:47.696Z,10948
2016-11-25T10:10:47.341Z,12104
2016-11-25T10:11:47.354Z,13800
2016-11-25T10:12:47.326Z,13516
2016-11-25T10:13:47.299Z,12552
2016-11-25T10:14:47.284Z,10616
2016-11-25T10:15:47.280Z,9988
2016-11-25T10:16:47.256Z,9744
2016-11-25T10:17:47.558Z,9024
2016-11-25T10:18:47.230Z,8336
2016-11-25T10:19:47.216Z,8356
2016-11-25T10:20:47.211Z,9464
2016-11-25T10:21:47.191Z,11180
2016-11-25T10:22:47.181Z,10856
2016-11-25T10:23:47.165Z,10088
2016-11-25T10:24:47.188Z,10536
2016-11-25T10:25:47.141Z,9880
2016-11-25T10:26:47.127Z,9792
2016-11-25T10:27:47.136Z,10864
2016-11-25T10:28:47.107Z,11704
2016-11-25T10:29:47.093Z,12648
2016-11-25T10:30:47.091Z,13324
2016-11-25T10:31:47.067Z,14032
2016-11-25T10:32:47.054Z,15584
2016-11-25T10:33:47.043Z,13868
2016-11-25T10:34:47.031Z,11484
2016-11-25T10:35:47.021Z,12184
2016-11-25T10:36:47.013Z,13816
2016-11-25T10:37:46.997Z,13856
2016-11-25T10:38:47.303Z,13240
2016-11-25T10:39:47.295Z,12932
2016-11-25T10:40:46.960Z,14332
2016-11-25T10:41:47.008Z,18240
2016-11-25T10:42:46.939Z,20416
2016-11-25T10:43:46.924Z,21760
2016-11-25T10:44:46.920Z,21280
2016-11-25T10:45:46.899Z,20288
2016-11-25T10:46:47.204Z,19424
2016-11-25T10:47:46.879Z,18240
2016-11-25T10:48:46.880Z,19072
2016-11-25T10:49:46.858Z,17024
2016-11-25T10:50:46.852Z,14720
2016-11-25T10:51:46.836Z,15392
2016-11-25T10:52:46.824Z,16192
2016-11-25T10:53:46.867Z,15936
2016-11-25T10:54:47.118Z,15232
2016-11-25T10:55:46.801Z,15040
2016-11-25T10:56:46.814Z,15104
2016-11-25T10:57:46.781Z,14816
2016-11-25T10:58:46.771Z,13872
2016-11-25T10:59:46.758Z,14444
2016-11-25T11:00:46.767Z,13980
2016-11-25T11:01:46.738Z,13972
2016-11-25T11:02:46.721Z,16536
2016-11-25T11:03:46.742Z,17568
2016-11-25T11:04:46.704Z,16124
2016-11-25T11:05:46.691Z,13852
2016-11-25T11:06:46.684Z,11784
2016-11-25T11:07:46.684Z,13160
2016-11-25T11:08:46.667Z,12376
2016-11-25T11:09:46.653Z,12480
2016-11-25T11:10:46.691Z,13788
2016-11-25T11:11:46.628Z,16000
2016-11-25T11:12:46.620Z,19264
2016-11-25T11:13:46.609Z,19360
2016-11-25T11:14:46.600Z,14000
2016-11-25T11:15:46.657Z,9916
2016-11-25T11:16:46.899Z,11216
2016-11-25T11:17:46.618Z,11456
2016-11-25T11:18:46.565Z,10220
2016-11-25T11:19:46.550Z,8068
2016-11-25T11:20:46.540Z,5588
2016-11-25T11:21:46.842Z,5300
2016-11-25T11:22:46.527Z,5128
2016-11-25T11:23:46.822Z,4924
2016-11-25T11:24:46.495Z,4728
2016-11-25T11:25:46.849Z,4588
2016-11-25T11:26:46.494Z,4552
2016-11-25T11:27:46.464Z,4572
2016-11-25T11:28:46.458Z,4536
2016-11-25T11:29:46.438Z,4468
2016-11-25T11:30:46.752Z,4524
2016-11-25T11:31:46.730Z,4528
2016-11-25T11:32:46.412Z,4580
2016-11-25T11:33:46.394Z,4040
2016-11-25T11:34:46.373Z,4664
2016-11-25T11:35:46.369Z,4780
2016-11-25T11:36:46.350Z,5320
2016-11-25T11:37:46.367Z,5156
2016-11-25T11:38:46.325Z,4768
2016-11-25T11:39:46.313Z,4768
2016-11-25T11:40:46.298Z,4848
2016-11-25T11:41:46.312Z,4924
2016-11-25T11:42:46.270Z,4980
2016-11-25T11:43:46.568Z,5052
2016-11-25T11:44:46.248Z,5104
2016-11-25T11:45:46.221Z,5192
2016-11-25T11:46:46.209Z,5380
2016-11-25T11:47:46.195Z,5616
2016-11-25T11:48:46.419Z,5880
2016-11-25T11:49:46.171Z,6164
2016-11-25T11:50:46.160Z,6924
2016-11-25T11:51:46.148Z,7640
2016-11-25T11:52:46.453Z,9224
2016-11-25T11:53:46.127Z,10588
2016-11-25T11:54:46.104Z,15000
2016-11-25T11:55:46.101Z,19232
2016-11-25T11:56:46.079Z,20576
2016-11-25T11:57:46.060Z,22304
2016-11-25T11:58:46.363Z,22240
2016-11-25T11:59:46.348Z,22112
2016-11-25T12:00:46.025Z,22112
2016-11-25T12:01:46.007Z,21760
2016-11-25T12:02:45.998Z,21632
2016-11-25T12:03:45.995Z,21600
2016-11-25T12:04:45.973Z,21504
2016-11-25T12:05:46.279Z,21312
2016-11-25T12:06:45.942Z,21184
2016-11-25T12:07:46.448Z,21248
2016-11-25T12:08:46.273Z,21248
2016-11-25T12:09:45.926Z,20960
2016-11-25T12:10:45.921Z,20544
2016-11-25T12:11:45.925Z,20448
2016-11-25T12:12:45.894Z,20544
2016-11-25T12:13:46.199Z,20512
2016-11-25T12:14:45.872Z,20064
2016-11-25T12:15:45.867Z,19328
2016-11-25T12:16:45.864Z,17952
2016-11-25T12:17:46.494Z,16544
2016-11-25T12:18:45.847Z,15776
2016-11-25T12:19:45.837Z,15456
2016-11-25T12:20:46.159Z,15712
2016-11-25T12:21:45.839Z,16672
2016-11-25T12:22:45.854Z,17984
2016-11-25T12:23:45.810Z,18304
2016-11-25T12:24:45.798Z,18176
2016-11-25T12:25:45.805Z,17792
2016-11-25T12:26:45.787Z,17696
2016-11-25T12:27:45.788Z,18016
2016-11-25T12:28:45.787Z,18784
2016-11-25T12:29:45.775Z,20096
2016-11-25T12:30:45.764Z,20960
2016-11-25T12:31:45.766Z,20576
2016-11-25T12:32:45.754Z,20384
2016-11-25T12:33:45.752Z,19712
2016-11-25T12:34:45.742Z,19296
2016-11-25T12:35:45.732Z,18944
2016-11-25T12:36:45.736Z,18624
2016-11-25T12:37:45.735Z,18368
2016-11-25T12:38:45.720Z,17056
2016-11-25T12:39:45.724Z,16192
2016-11-25T12:40:46.350Z,15360
2016-11-25T12:41:45.700Z,14912
2016-11-25T12:42:45.746Z,15232
2016-11-25T12:43:45.697Z,15744
2016-11-25T12:44:45.686Z,15744
2016-11-25T12:45:45.997Z,15520
2016-11-25T12:46:45.689Z,15008
2016-11-25T12:47:45.763Z,14592
2016-11-25T12:48:46.004Z,14624
2016-11-25T12:49:45.664Z,14976
2016-11-25T12:50:45.977Z,15360
2016-11-25T12:51:45.656Z,14176
2016-11-25T12:52:45.966Z,14848
2016-11-25T12:53:45.645Z,15328
2016-11-25T12:54:45.958Z,15776
2016-11-25T12:55:45.629Z,16256
2016-11-25T12:56:45.965Z,16992
2016-11-25T12:57:45.671Z,17504
2016-11-25T12:58:45.620Z,17888
2016-11-25T12:59:45.614Z,17696
2016-11-25T13:00:45.607Z,17472
2016-11-25T13:01:45.603Z,17632
2016-11-25T13:02:45.609Z,18240
2016-11-25T13:03:45.596Z,18400
2016-11-25T13:04:45.606Z,18560
2016-11-25T13:05:46.214Z,18528
2016-11-25T13:06:45.908Z,18080
2016-11-25T13:07:45.579Z,17824
2016-11-25T13:08:45.571Z,17568
2016-11-25T13:09:45.883Z,16480
2016-11-25T13:10:45.572Z,15488
2016-11-25T13:11:45.883Z,14400
2016-11-25T13:12:45.590Z,13888
2016-11-25T13:13:45.581Z,13536
2016-11-25T13:14:45.548Z,13056
2016-11-25T13:15:45.541Z,12192
2016-11-25T13:16:45.858Z,11328
2016-11-25T13:17:45.529Z,10688
2016-11-25T13:18:45.529Z,10424
2016-11-25T13:19:45.526Z,10752
2016-11-25T13:20:45.517Z,11136
2016-11-25T13:21:45.518Z,11512
2016-11-25T13:22:45.509Z,12120
2016-11-25T13:23:45.509Z,12660
2016-11-25T13:24:45.505Z,13008
2016-11-25T13:25:45.814Z,13188
2016-11-25T13:26:45.492Z,13584
2016-11-25T13:27:45.494Z,14188
2016-11-25T13:28:45.802Z,14356
2016-11-25T13:29:45.521Z,14344
2016-11-25T13:30:45.474Z,14140
2016-11-25T13:31:45.498Z,13920
2016-11-25T13:32:45.475Z,13556
2016-11-25T13:33:45.460Z,13204
2016-11-25T13:34:45.461Z,12496
2016-11-25T13:35:45.466Z,10716
2016-11-25T13:36:45.761Z,8244
2016-11-25T13:37:45.443Z,6892
2016-11-25T13:38:45.439Z,5964
2016-11-25T13:39:45.746Z,4816
2016-11-25T13:40:45.425Z,4124
2016-11-25T13:41:45.423Z,3868
2016-11-25T13:42:45.422Z,3752
2016-11-25T13:43:45.432Z,3652
2016-11-25T13:44:45.716Z,3572
2016-11-25T13:45:45.402Z,3548
2016-11-25T13:46:45.714Z,3492
2016-11-25T13:47:45.392Z,3464
2016-11-25T13:48:45.894Z,3452
2016-11-25T13:49:45.373Z,3396
2016-11-25T13:50:45.364Z,3372
2016-11-25T13:51:45.357Z,3356
2016-11-25T13:52:45.351Z,3336
2016-11-25T13:53:45.337Z,3332
2016-11-25T13:54:45.641Z,3328